NKS420 KSAN-KLAX
Flight info
| Callsign | NKS420 |
|---|---|
| Flight time | 0h 26m |
| Altitude | 10000 |
| Route | CWARD2 SLI |
| Aircraft | A20N/M-SDE2E3FGHIRWXY/LB1 |
Departure
| Time | 2026-05-04 03:09 |
|---|---|
| Airport | San Diego International Airport (KSAN) |
Arrival
| Time | 2026-05-04 03:35 |
|---|---|
| Airport | Los Angeles International Airport (KLAX) |
| Time | Latitude | Longitude | Altitude | Speed | Heading |
|---|---|---|---|---|---|
| 2026-05-04 02:47 | 32.73372 | -117.19776 | 27 ft | 0 kts | 255° |
| 2026-05-04 02:55 | 32.73372 | -117.19772 | 27 ft | 1 kts | 255° |
| 2026-05-04 02:55 | 32.73375 | -117.19762 | 27 ft | 1 kts | 255° |
| 2026-05-04 02:56 | 32.73377 | -117.19752 | 27 ft | 1 kts | 255° |
| 2026-05-04 02:56 | 32.73380 | -117.19742 | 27 ft | 1 kts | 223° |
| 2026-05-04 02:56 | 32.73387 | -117.19735 | 28 ft | 1 kts | 218° |
| 2026-05-04 02:56 | 32.73393 | -117.19730 | 28 ft | 1 kts | 218° |
| 2026-05-04 02:57 | 32.73401 | -117.19724 | 28 ft | 1 kts | 187° |
| 2026-05-04 02:57 | 32.73410 | -117.19724 | 28 ft | 1 kts | 162° |
| 2026-05-04 02:57 | 32.73418 | -117.19730 | 29 ft | 1 kts | 125° |
| 2026-05-04 02:57 | 32.73420 | -117.19733 | 29 ft | 6 kts | 108° |
| 2026-05-04 02:58 | 32.73418 | -117.19721 | 29 ft | 0 kts | 102° |
| 2026-05-04 02:59 | 32.73417 | -117.19689 | 29 ft | 11 kts | 89° |
| 2026-05-04 02:59 | 32.73399 | -117.19568 | 30 ft | 19 kts | 105° |
| 2026-05-04 03:00 | 32.73359 | -117.19408 | 29 ft | 22 kts | 106° |
| 2026-05-04 03:00 | 32.73311 | -117.19210 | 27 ft | 28 kts | 105° |
| 2026-05-04 03:00 | 32.73258 | -117.18995 | 29 ft | 27 kts | 107° |
| 2026-05-04 03:00 | 32.73207 | -117.18782 | 32 ft | 26 kts | 106° |
| 2026-05-04 03:01 | 32.73156 | -117.18573 | 32 ft | 27 kts | 106° |
| 2026-05-04 03:01 | 32.73104 | -117.18354 | 31 ft | 28 kts | 105° |
| 2026-05-04 03:01 | 32.73049 | -117.18130 | 29 ft | 29 kts | 107° |
| 2026-05-04 03:01 | 32.72995 | -117.17898 | 31 ft | 29 kts | 107° |
| 2026-05-04 03:02 | 32.72964 | -117.17782 | 29 ft | 0 kts | 108° |
| 2026-05-04 03:02 | 32.72959 | -117.17762 | 29 ft | 8 kts | 106° |
| 2026-05-04 03:02 | 32.72954 | -117.17696 | 29 ft | 2 kts | 82° |
| 2026-05-04 03:02 | 32.72956 | -117.17686 | 30 ft | 2 kts | 81° |
| 2026-05-04 03:03 | 32.72956 | -117.17681 | 29 ft | 0 kts | 79° |
| 2026-05-04 03:06 | 32.72961 | -117.17658 | 30 ft | 13 kts | 70° |
| 2026-05-04 03:06 | 32.73026 | -117.17633 | 30 ft | 7 kts | 321° |
| 2026-05-04 03:07 | 32.73041 | -117.17671 | 29 ft | 0 kts | 289° |
| 2026-05-04 03:07 | 32.73042 | -117.17674 | 29 ft | 1 kts | 289° |
| 2026-05-04 03:07 | 32.73046 | -117.17691 | 29 ft | 3 kts | 287° |
| 2026-05-04 03:07 | 32.73052 | -117.17714 | 29 ft | 0 kts | 286° |
| 2026-05-04 03:08 | 32.73052 | -117.17716 | 29 ft | 1 kts | 286° |
| 2026-05-04 03:08 | 32.73109 | -117.17952 | 30 ft | 68 kts | 286° |
| 2026-05-04 03:08 | 32.73316 | -117.18820 | 28 ft | 150 kts | 285° |
| 2026-05-04 03:08 | 32.73649 | -117.20183 | 359 ft | 184 kts | 285° |
| 2026-05-04 03:09 | 32.74056 | -117.21698 | 708 ft | 203 kts | 292° |
| 2026-05-04 03:09 | 32.74853 | -117.23187 | 975 ft | 222 kts | 302° |
| 2026-05-04 03:09 | 32.75760 | -117.24709 | 1463 ft | 231 kts | 303° |
| 2026-05-04 03:09 | 32.76734 | -117.26335 | 1776 ft | 248 kts | 303° |
| 2026-05-04 03:10 | 32.77714 | -117.27995 | 2658 ft | 240 kts | 303° |
| 2026-05-04 03:10 | 32.78632 | -117.29573 | 3689 ft | 230 kts | 302° |
| 2026-05-04 03:10 | 32.79522 | -117.31096 | 4847 ft | 220 kts | 304° |
| 2026-05-04 03:10 | 32.80423 | -117.32538 | 5960 ft | 216 kts | 304° |
| 2026-05-04 03:11 | 32.81337 | -117.33965 | 6867 ft | 219 kts | 304° |
| 2026-05-04 03:11 | 32.82305 | -117.35476 | 7361 ft | 243 kts | 304° |
| 2026-05-04 03:11 | 32.83379 | -117.37150 | 7878 ft | 262 kts | 304° |
| 2026-05-04 03:11 | 32.84510 | -117.38905 | 8682 ft | 271 kts | 303° |
| 2026-05-04 03:12 | 32.85677 | -117.40713 | 9462 ft | 279 kts | 303° |
| 2026-05-04 03:12 | 32.86851 | -117.42531 | 9896 ft | 281 kts | 303° |
| 2026-05-04 03:12 | 32.88047 | -117.44387 | 9981 ft | 283 kts | 303° |
| 2026-05-04 03:12 | 32.89247 | -117.46249 | 9985 ft | 284 kts | 303° |
| 2026-05-04 03:13 | 32.90451 | -117.48119 | 9988 ft | 285 kts | 303° |
| 2026-05-04 03:13 | 32.91654 | -117.49989 | 9987 ft | 285 kts | 303° |
| 2026-05-04 03:13 | 32.92854 | -117.51856 | 9985 ft | 284 kts | 303° |
| 2026-05-04 03:13 | 32.94059 | -117.53732 | 9985 ft | 285 kts | 303° |
| 2026-05-04 03:14 | 32.95263 | -117.55606 | 9981 ft | 285 kts | 303° |
| 2026-05-04 03:14 | 32.96467 | -117.57483 | 9985 ft | 285 kts | 303° |
| 2026-05-04 03:14 | 32.97667 | -117.59356 | 9981 ft | 285 kts | 303° |
| 2026-05-04 03:14 | 32.98871 | -117.61235 | 9984 ft | 285 kts | 303° |
| 2026-05-04 03:15 | 33.00070 | -117.63107 | 9987 ft | 285 kts | 303° |
| 2026-05-04 03:15 | 33.01272 | -117.64983 | 9979 ft | 285 kts | 303° |
| 2026-05-04 03:15 | 33.02474 | -117.66860 | 9978 ft | 285 kts | 303° |
| 2026-05-04 03:15 | 33.03678 | -117.68742 | 9978 ft | 285 kts | 303° |
| 2026-05-04 03:16 | 33.04878 | -117.70621 | 9977 ft | 285 kts | 303° |
| 2026-05-04 03:16 | 33.06102 | -117.72476 | 9981 ft | 286 kts | 308° |
| 2026-05-04 03:16 | 33.07535 | -117.74142 | 9982 ft | 289 kts | 314° |
| 2026-05-04 03:16 | 33.09063 | -117.75716 | 9980 ft | 290 kts | 315° |
| 2026-05-04 03:17 | 33.10581 | -117.77248 | 9981 ft | 290 kts | 315° |
| 2026-05-04 03:17 | 33.12120 | -117.78803 | 9979 ft | 289 kts | 315° |
| 2026-05-04 03:17 | 33.13656 | -117.80358 | 9980 ft | 289 kts | 315° |
| 2026-05-04 03:17 | 33.15188 | -117.81914 | 9980 ft | 289 kts | 315° |
| 2026-05-04 03:18 | 33.16719 | -117.83470 | 9979 ft | 289 kts | 315° |
| 2026-05-04 03:18 | 33.18256 | -117.85020 | 9980 ft | 290 kts | 317° |
| 2026-05-04 03:18 | 33.20010 | -117.86240 | 9983 ft | 296 kts | 336° |
| 2026-05-04 03:18 | 33.22007 | -117.86904 | 9982 ft | 300 kts | 343° |
| 2026-05-04 03:19 | 33.24058 | -117.87415 | 9976 ft | 301 kts | 345° |
| 2026-05-04 03:19 | 33.26111 | -117.87904 | 9974 ft | 301 kts | 345° |
| 2026-05-04 03:19 | 33.28164 | -117.88399 | 9974 ft | 301 kts | 344° |
| 2026-05-04 03:19 | 33.30216 | -117.88899 | 9975 ft | 301 kts | 344° |
| 2026-05-04 03:20 | 33.32263 | -117.89403 | 9974 ft | 301 kts | 344° |
| 2026-05-04 03:20 | 33.34291 | -117.89905 | 9974 ft | 301 kts | 344° |
| 2026-05-04 03:20 | 33.36345 | -117.90416 | 9974 ft | 301 kts | 344° |
| 2026-05-04 03:20 | 33.38389 | -117.90962 | 9973 ft | 300 kts | 341° |
| 2026-05-04 03:21 | 33.40394 | -117.91640 | 9974 ft | 299 kts | 339° |
| 2026-05-04 03:21 | 33.42390 | -117.92361 | 9982 ft | 299 kts | 339° |
| 2026-05-04 03:21 | 33.44462 | -117.93122 | 9985 ft | 325 kts | 339° |
| 2026-05-04 03:21 | 33.46673 | -117.93933 | 9964 ft | 337 kts | 339° |
| 2026-05-04 03:22 | 33.48881 | -117.94733 | 9895 ft | 322 kts | 339° |
| 2026-05-04 03:22 | 33.50978 | -117.95489 | 9677 ft | 308 kts | 339° |
| 2026-05-04 03:22 | 33.52970 | -117.96210 | 9373 ft | 299 kts | 339° |
| 2026-05-04 03:22 | 33.54941 | -117.96928 | 8970 ft | 294 kts | 339° |
| 2026-05-04 03:23 | 33.56883 | -117.97637 | 8552 ft | 290 kts | 339° |
| 2026-05-04 03:23 | 33.58803 | -117.98338 | 8107 ft | 287 kts | 340° |
| 2026-05-04 03:23 | 33.60701 | -117.99030 | 7684 ft | 283 kts | 340° |
| 2026-05-04 03:23 | 33.62574 | -117.99713 | 7282 ft | 280 kts | 340° |
| 2026-05-04 03:24 | 33.64422 | -118.00390 | 7018 ft | 277 kts | 340° |
| 2026-05-04 03:24 | 33.66273 | -118.01066 | 6969 ft | 278 kts | 341° |
| 2026-05-04 03:24 | 33.68120 | -118.01740 | 6968 ft | 278 kts | 341° |
| 2026-05-04 03:24 | 33.69971 | -118.02417 | 6969 ft | 278 kts | 341° |
| 2026-05-04 03:25 | 33.71822 | -118.03093 | 6968 ft | 278 kts | 341° |
| 2026-05-04 03:25 | 33.73672 | -118.03770 | 6966 ft | 278 kts | 340° |
| 2026-05-04 03:25 | 33.75499 | -118.04437 | 6932 ft | 266 kts | 341° |
| 2026-05-04 03:25 | 33.77214 | -118.04932 | 6926 ft | 248 kts | 348° |
| 2026-05-04 03:26 | 33.78347 | -118.05114 | 6927 ft | 239 kts | 351° |
| 2026-05-04 03:26 | 33.80514 | -118.05393 | 6890 ft | 236 kts | 351° |
| 2026-05-04 03:26 | 33.82151 | -118.05596 | 6550 ft | 236 kts | 351° |
| 2026-05-04 03:26 | 33.83776 | -118.05800 | 6251 ft | 232 kts | 351° |
| 2026-05-04 03:27 | 33.85378 | -118.06011 | 5880 ft | 232 kts | 352° |
| 2026-05-04 03:27 | 33.86450 | -118.06174 | 5582 ft | 236 kts | 351° |
| 2026-05-04 03:27 | 33.88070 | -118.06430 | 5270 ft | 233 kts | 351° |
| 2026-05-04 03:27 | 33.89660 | -118.06687 | 4981 ft | 229 kts | 351° |
| 2026-05-04 03:28 | 33.91235 | -118.06948 | 4631 ft | 228 kts | 351° |
| 2026-05-04 03:28 | 33.92803 | -118.07212 | 4279 ft | 227 kts | 351° |
| 2026-05-04 03:28 | 33.94356 | -118.07470 | 3930 ft | 223 kts | 351° |
| 2026-05-04 03:28 | 33.95886 | -118.07783 | 3617 ft | 222 kts | 338° |
| 2026-05-04 03:29 | 33.97101 | -118.08857 | 3583 ft | 217 kts | 301° |
| 2026-05-04 03:29 | 33.97428 | -118.10545 | 3587 ft | 212 kts | 259° |
| 2026-05-04 03:29 | 33.96905 | -118.12206 | 3595 ft | 213 kts | 246° |
| 2026-05-04 03:29 | 33.96389 | -118.13848 | 3601 ft | 205 kts | 252° |
| 2026-05-04 03:30 | 33.96071 | -118.15514 | 3589 ft | 204 kts | 260° |
| 2026-05-04 03:30 | 33.95882 | -118.17207 | 3572 ft | 200 kts | 262° |
| 2026-05-04 03:30 | 33.95728 | -118.18788 | 3365 ft | 181 kts | 261° |
| 2026-05-04 03:30 | 33.95577 | -118.20243 | 3113 ft | 174 kts | 261° |
| 2026-05-04 03:31 | 33.95425 | -118.21705 | 2864 ft | 177 kts | 262° |
| 2026-05-04 03:31 | 33.95274 | -118.23181 | 2612 ft | 177 kts | 262° |
| 2026-05-04 03:31 | 33.95125 | -118.24650 | 2381 ft | 175 kts | 262° |
| 2026-05-04 03:31 | 33.94983 | -118.26045 | 2130 ft | 162 kts | 262° |
| 2026-05-04 03:32 | 33.94850 | -118.27344 | 1915 ft | 155 kts | 262° |
| 2026-05-04 03:32 | 33.94722 | -118.28605 | 1719 ft | 146 kts | 263° |
| 2026-05-04 03:32 | 33.94600 | -118.29800 | 1522 ft | 145 kts | 262° |
| 2026-05-04 03:32 | 33.94477 | -118.30998 | 1351 ft | 142 kts | 262° |
| 2026-05-04 03:33 | 33.94357 | -118.32183 | 1149 ft | 140 kts | 262° |
| 2026-05-04 03:33 | 33.94239 | -118.33329 | 949 ft | 139 kts | 262° |
| 2026-05-04 03:33 | 33.94122 | -118.34482 | 761 ft | 136 kts | 261° |
| 2026-05-04 03:33 | 33.94005 | -118.35618 | 588 ft | 138 kts | 263° |
| 2026-05-04 03:34 | 33.93891 | -118.36750 | 367 ft | 136 kts | 261° |
| 2026-05-04 03:34 | 33.93774 | -118.37887 | 284 ft | 131 kts | 264° |
| 2026-05-04 03:34 | 33.93674 | -118.38936 | 139 ft | 119 kts | 263° |
| 2026-05-04 03:34 | 33.93585 | -118.39792 | 129 ft | 73 kts | 262° |
| 2026-05-04 03:35 | 33.93557 | -118.40052 | 129 ft | 7 kts | 265° |
| 2026-05-04 03:35 | 33.93551 | -118.40151 | 124 ft | 15 kts | 270° |
| 2026-05-04 03:35 | 33.93596 | -118.40283 | 124 ft | 12 kts | 297° |
| 2026-05-04 03:35 | 33.93604 | -118.40301 | 125 ft | 10 kts | 296° |
| 2026-05-04 03:36 | 33.93626 | -118.40385 | 128 ft | 11 kts | 279° |
| 2026-05-04 03:36 | 33.93623 | -118.40466 | 126 ft | 9 kts | 263° |
| 2026-05-04 03:36 | 33.93615 | -118.40548 | 128 ft | 12 kts | 263° |
| 2026-05-04 03:36 | 33.93604 | -118.40653 | 127 ft | 13 kts | 263° |
| 2026-05-04 03:37 | 33.93595 | -118.40765 | 125 ft | 13 kts | 270° |
| 2026-05-04 03:37 | 33.93609 | -118.40841 | 125 ft | 0 kts | 296° |
| 2026-05-04 03:37 | 33.93625 | -118.40871 | 127 ft | 7 kts | 314° |
| 2026-05-04 03:38 | 33.93689 | -118.40898 | 126 ft | 13 kts | 351° |
| 2026-05-04 03:38 | 33.93777 | -118.40893 | 127 ft | 12 kts | 30° |
| 2026-05-04 03:38 | 33.93817 | -118.40892 | 126 ft | 4 kts | 320° |
| 2026-05-04 03:38 | 33.93855 | -118.40897 | 125 ft | 6 kts | 41° |
| 2026-05-04 03:39 | 33.93873 | -118.40845 | 127 ft | 7 kts | 78° |
| 2026-05-04 03:39 | 33.93890 | -118.40771 | 127 ft | 7 kts | 50° |
| 2026-05-04 03:39 | 33.93929 | -118.40738 | 125 ft | 9 kts | 40° |
| 2026-05-04 03:39 | 33.93944 | -118.40722 | 125 ft | 0 kts | 41° |
| 2026-05-04 03:40 | 33.93946 | -118.40719 | 126 ft | 0 kts | 39° |